KSOA

Details ICAO KSOA
Name SONORA MUNI
Region United States
Timezone America/Chicago (UTC-5.0)
Plans Departing 2
Arriving 5
Stats Elevation 2,140 ft / 652 m (AMSL)
Location 30.585700° -100.648561°
Runways 1
Magnetic Variation 5.364° E
Sunrise 2018-05-25 11:44:19 UTC / 2018-05-25 06:44:19 Local
Sunset 2018-05-26 01:37:41 UTC / 2018-05-25 20:37:41 Local
Advertisement - Login to hide

Runways

ID Width Length Bearing (true) Bearing (mag) Surface Threshold Offset Overrun Length
18 60 ft / 18 m 4,048 ft / 1,234 m 189.93° 184.57° Asphalt 93 ft / 28 m 0 ft / 0 m
36 60 ft / 18 m 4,048 ft / 1,234 m 9.93° 4.57° Asphalt 600 ft / 183 m 0 ft / 0 m

Map

Weather


0- 5 10 15 20 25 30 35+ Temperature / ° C

Clouds and Precipitation
Forecast for 2018-05-25 12:00 UTC. Updated 2 hours ago

Ground ~20,000 ft ~40,000 ft Winds

METAR

KSOA 251255Z AUTO 18006KT 10SM OVC008 22/20 A3008 RMK AO2

TAF

TAF KSOA 251120Z 2512/2612 17005KT P6SM FEW050 FM251500 18011KT P6SM SKC

Frequencies

Recorded 118.07 MHz AWOS 3
Unicom 122.80 MHz CTAF/UNICOM
Warning: Do not use this data for real-world aviation or navigation. No guarantee of current accuracy is given.